createdAt,value
2023-03-01T04:40:27.458Z,10.35
2023-03-01T04:51:03.893Z,10.93
2023-03-01T05:01:43.675Z,10.23
2023-03-01T05:12:19.551Z,10.40
2023-03-01T05:22:59.395Z,10.27
2023-03-01T05:33:35.870Z,10.80
2023-03-01T05:44:13.155Z,10.68
2023-03-01T05:54:48.802Z,9.98
2023-03-01T06:05:24.757Z,13.07
2023-03-01T06:16:00.340Z,12.25
2023-03-01T06:26:36.227Z,12.13
2023-03-01T06:37:12.321Z,12.25
2023-03-01T06:47:48.020Z,11.77
2023-03-01T06:58:24.295Z,12.35
2023-03-01T07:08:59.789Z,13.20
2023-03-01T07:19:35.037Z,14.13
2023-03-01T07:30:11.475Z,10.93
2023-03-01T07:40:46.848Z,10.27
2023-03-01T07:51:22.622Z,11.63
2023-03-01T08:01:58.457Z,9.75
2023-03-01T08:12:34.676Z,10.98
2023-03-01T08:23:10.618Z,11.27
2023-03-01T08:33:51.592Z,11.40
2023-03-01T08:44:27.361Z,12.65
2023-03-01T08:55:04.484Z,11.95
2023-03-01T09:05:40.419Z,11.27
2023-03-01T09:16:18.868Z,13.20
2023-03-01T09:26:56.610Z,11.50
2023-03-01T09:37:34.348Z,13.43
2023-03-01T09:48:17.058Z,13.77
2023-03-01T09:59:24.396Z,14.00
2023-03-01T10:10:01.345Z,13.57
2023-03-01T10:20:50.895Z,13.43
2023-03-01T10:31:38.191Z,13.13
2023-03-01T10:42:33.050Z,14.15
2023-03-01T10:53:36.831Z,13.18
2023-03-01T11:04:14.337Z,14.63
2023-03-01T11:14:53.674Z,12.85
2023-03-01T11:25:36.227Z,12.48
2023-03-01T11:36:30.459Z,11.38
2023-03-01T11:47:21.052Z,12.68
2023-03-01T11:58:32.432Z,13.23
2023-03-01T12:09:28.846Z,12.30
2023-03-01T12:20:28.936Z,11.57
2023-03-01T12:31:42.230Z,11.65
2023-03-01T12:42:52.743Z,10.95
2023-03-01T12:53:32.899Z,9.88
2023-03-01T13:04:26.931Z,8.18
2023-03-01T13:15:02.739Z,9.07
2023-03-01T13:26:03.575Z,8.73
2023-03-01T13:37:01.831Z,9.32
2023-03-01T13:47:39.119Z,7.47
2023-03-01T13:58:44.446Z,7.43
2023-03-01T14:09:28.478Z,7.22
2023-03-01T14:20:17.156Z,7.32
2023-03-01T14:30:55.201Z,6.78
2023-03-01T14:41:31.804Z,6.70
2023-03-01T14:52:21.130Z,6.47
2023-03-01T15:03:01.386Z,6.30
2023-03-01T15:13:37.349Z,6.55
2023-03-01T15:24:20.096Z,8.88
2023-03-01T15:34:56.485Z,8.20
2023-03-01T15:45:38.731Z,7.43
2023-03-01T15:56:15.247Z,8.77
2023-03-01T16:06:55.023Z,10.48
2023-03-01T16:17:30.820Z,7.72
2023-03-01T16:28:10.145Z,8.32
2023-03-01T16:49:25.526Z,8.65
2023-03-01T17:00:01.392Z,7.63
2023-03-01T17:10:37.053Z,8.82
2023-03-01T17:21:13.771Z,8.18
2023-03-01T17:31:49.351Z,8.20
2023-03-01T17:42:25.295Z,8.98
2023-03-01T17:53:01.668Z,9.90
2023-03-01T18:03:37.384Z,10.32
2023-03-01T18:14:13.237Z,9.68
2023-03-01T18:24:48.740Z,10.43
2023-03-01T18:35:24.253Z,9.57
2023-03-01T18:46:00.398Z,10.07
2023-03-01T18:56:35.962Z,9.88
2023-03-01T19:07:12.450Z,10.50
2023-03-01T19:17:47.931Z,10.07
2023-03-01T19:28:23.325Z,12.82
2023-03-01T19:39:00.910Z,21.33
2023-03-01T19:49:37.686Z,22.95
2023-03-01T20:00:14.138Z,11.90
2023-03-01T20:10:51.011Z,13.75
2023-03-01T20:21:27.848Z,12.63
2023-03-01T20:32:03.831Z,11.48
2023-03-01T20:42:39.518Z,16.38
2023-03-01T20:53:15.550Z,11.20
2023-03-01T21:03:52.522Z,10.50
2023-03-01T21:14:28.629Z,10.48
2023-03-01T21:25:04.507Z,10.80
2023-03-01T21:35:39.985Z,9.93
2023-03-01T21:46:18.792Z,10.68
2023-03-01T21:56:54.436Z,11.55
2023-03-01T22:07:30.784Z,10.95
2023-03-01T22:18:06.302Z,9.73
2023-03-01T22:28:43.681Z,10.27
